Terminal Aerodrome Forecast
Issued by NWS

Home | Current Version | Previous Version | Text Only | Print | Product List | Glossary On
Versions: 1 2 3 4 5 6 7 8 9 10 11 12 13 14 15 16 17 18 19 20 21 22 23 24 25 26
000
FTUS43 KLSX 031100
TAFSUS
TAF
KSUS 031125Z 0312/0412 15007KT 6SM -RA BR OVC009
      TEMPO 0312/0313 OVC015
     FM031500 18010G16KT P6SM OVC009
     FM031800 22012G18KT P6SM OVC013
     FM040000 30009KT P6SM OVC017
     FM040500 34012G18KT P6SM OVC050=

USA.gov is the U.S. government's official web portal to all federal, state and local government web resources and services.